Time;durP1;ratioP1;P1;durP2;ratioP2;P2;SDS_P1;SDS_P2;PMS_P1;PMS_P2;Temp;Humidity;BMP_temperature;BMP_pressure;BME280_temperature;BME280_humidity;BME280_pressure;Samples;Min_cycle;Max_cycle;Signal;HPM_P1;HPM_P2
2022/08/08 00:01:56;;;;;;;2.10;2.00;;;;;;;15.12;100.00;97505.28;4964597;28;20618;-66
2022/08/08 00:04:48;;;;;;;2.30;1.97;;;;;;;14.94;100.00;97502.41;4923494;28;20264;-66
2022/08/08 00:07:28;;;;;;;2.03;1.83;;;;;;;14.72;100.00;97500.75;4964588;28;20489;-67
2022/08/08 00:10:05;;;;;;;2.40;1.90;;;;;;;14.75;100.00;97499.50;4955113;28;20256;-63
2022/08/08 00:12:45;;;;;;;1.53;1.53;;;;;;;14.69;100.00;97503.78;4967429;28;20256;-65
2022/08/08 00:15:27;;;;;;;1.90;1.83;;;;;;;14.73;100.00;97505.03;4956534;28;20459;-66
2022/08/08 00:18:20;;;;;;;4.30;1.90;;;;;;;14.55;100.00;97502.94;4965686;28;20310;-64
2022/08/08 00:20:52;;;;;;;2.07;1.90;;;;;;;14.59;100.00;97506.03;4915025;28;20221;-67
2022/08/08 00:23:27;;;;;;;2.30;2.20;;;;;;;14.43;100.00;97500.03;4964946;28;20659;-66
2022/08/08 00:26:12;;;;;;;1.90;1.80;;;;;;;14.38;100.00;97510.47;4949202;28;20241;-65
2022/08/08 00:28:53;;;;;;;2.27;2.10;;;;;;;14.65;100.00;97507.03;4960186;28;20276;-64
2022/08/08 00:31:24;;;;;;;2.00;1.90;;;;;;;14.60;100.00;97508.47;4957295;28;20233;-64
2022/08/08 00:37:24;;;;;;;2.40;2.17;;;;;;;14.60;100.00;97521.00;4941895;28;21537;-63
2022/08/08 00:40:49;;;;;;;2.03;1.93;;;;;;;14.65;100.00;97520.38;4947883;28;20360;-66
2022/08/08 00:43:59;;;;;;;2.00;1.90;;;;;;;14.57;100.00;97522.22;4932966;28;20214;-64
2022/08/08 00:46:55;;;;;;;1.87;1.87;;;;;;;14.41;100.00;97526.06;4962795;28;20670;-63
2022/08/08 00:49:55;;;;;;;2.23;2.13;;;;;;;14.37;100.00;97532.81;4956816;28;20205;-64
2022/08/08 00:52:46;;;;;;;3.73;2.40;;;;;;;14.31;100.00;97523.75;4943860;28;20224;-66
2022/08/08 00:55:55;;;;;;;2.40;2.20;;;;;;;14.14;100.00;97522.47;4960832;28;20221;-66
2022/08/08 00:58:57;;;;;;;1.90;1.90;;;;;;;14.01;100.00;97520.56;4911824;28;20217;-66
2022/08/08 01:01:34;;;;;;;2.43;2.33;;;;;;;13.98;100.00;97523.63;4961035;28;20213;-66
2022/08/08 01:04:27;;;;;;;2.30;2.20;;;;;;;13.93;100.00;97516.22;4958537;28;20365;-63
2022/08/08 01:07:35;;;;;;;2.10;2.00;;;;;;;13.84;100.00;97514.75;4950118;28;20238;-64
2022/08/08 01:10:53;;;;;;;2.17;2.07;;;;;;;13.88;100.00;97516.84;4947997;28;20221;-63
2022/08/08 01:14:08;;;;;;;2.27;2.10;;;;;;;13.81;100.00;97512.47;4957083;28;20261;-65
2022/08/08 01:17:14;;;;;;;2.73;2.53;;;;;;;13.76;100.00;97502.41;4964251;28;20238;-64
2022/08/08 01:20:28;;;;;;;2.50;2.40;;;;;;;13.71;100.00;97511.00;4961007;28;20231;-67
2022/08/08 01:23:39;;;;;;;2.67;2.30;;;;;;;13.75;100.00;97503.44;4908405;28;20210;-63
2022/08/08 01:26:52;;;;;;;2.97;2.60;;;;;;;13.64;100.00;97506.66;4947070;28;20244;-64
2022/08/08 01:29:38;;;;;;;2.60;2.40;;;;;;;13.55;100.00;97503.31;4945268;28;20300;-65
2022/08/08 01:32:59;;;;;;;2.37;2.27;;;;;;;13.51;100.00;97505.56;4962334;28;20285;-64
2022/08/08 01:36:13;;;;;;;2.27;2.17;;;;;;;13.50;100.00;97503.91;4964220;28;20225;-64
2022/08/08 01:39:13;;;;;;;2.40;2.30;;;;;;;13.32;100.00;97502.50;4962119;28;20216;-65
2022/08/08 01:41:58;;;;;;;2.50;2.40;;;;;;;13.27;100.00;97512.91;4946109;28;20210;-63
2022/08/08 01:44:37;;;;;;;2.80;2.60;;;;;;;13.32;100.00;97515.81;4957340;28;20217;-64
2022/08/08 01:47:14;;;;;;;3.93;2.63;;;;;;;13.30;100.00;97509.88;4944920;28;20446;-65
2022/08/08 01:50:09;;;;;;;2.63;2.53;;;;;;;13.35;100.00;97508.47;4960234;28;20911;-63
2022/08/08 01:53:02;;;;;;;;;;;;;;;;;;;;;
2022/08/08 01:56:04;;;;;;;2.77;2.67;;;;;;;13.23;100.00;97503.69;4831095;29;20243;-64
2022/08/08 01:59:10;;;;;;;3.00;2.80;;;;;;;13.24;100.00;97513.31;4867066;29;20216;-63
2022/08/08 02:01:59;;;;;;;2.73;2.53;;;;;;;13.16;100.00;97508.94;4888717;29;20204;-65
2022/08/08 02:04:38;;;;;;;3.40;2.77;;;;;;;13.11;100.00;97510.56;4890919;29;20674;-64
2022/08/08 02:07:17;;;;;;;3.40;2.60;;;;;;;13.06;100.00;97511.13;4888458;29;20210;-62
2022/08/08 02:10:10;;;;;;;3.90;3.50;;;;;;;12.94;100.00;97505.50;4886400;29;20290;-64
2022/08/08 02:13:01;;;;;;;2.97;2.77;;;;;;;12.96;100.00;97506.13;4898670;28;20345;-63
2022/08/08 02:15:37;;;;;;;2.90;2.70;;;;;;;12.95;100.00;97507.13;4965701;28;20232;-65
2022/08/08 02:18:12;;;;;;;2.93;2.70;;;;;;;12.98;100.00;97509.41;4940312;28;20293;-66
2022/08/08 02:22:30;;;;;;;3.40;3.10;;;;;;;12.88;100.00;97503.59;4962957;28;20212;-65
2022/08/08 02:23:50;;;;;;;3.27;3.07;;;;;;;12.90;100.00;97501.56;4931261;28;20232;-65
2022/08/08 02:26:27;;;;;;;3.00;2.70;;;;;;;12.83;100.00;97509.47;4910623;28;20269;-65
2022/08/08 02:29:16;;;;;;;2.90;2.70;;;;;;;12.76;100.00;97499.81;4940403;28;20484;-65
2022/08/08 02:32:09;;;;;;;3.03;2.73;;;;;;;12.83;100.00;97498.84;4959862;28;20219;-67
2022/08/08 02:35:13;;;;;;;3.00;2.70;;;;;;;12.74;100.00;97506.16;4939189;28;20232;-66
2022/08/08 02:38:17;;;;;;;3.17;2.97;;;;;;;12.62;100.00;97504.16;4961055;28;20598;-66
2022/08/08 02:41:20;;;;;;;3.80;3.00;;;;;;;12.55;100.00;97501.44;4937833;28;20219;-66
2022/08/08 02:44:35;;;;;;;3.67;3.47;;;;;;;12.53;100.00;97501.63;4962338;28;20685;-63
2022/08/08 02:47:48;;;;;;;3.30;3.10;;;;;;;12.34;100.00;97499.59;4892040;28;20226;-66
2022/08/08 02:51:01;;;;;;;4.20;3.57;;;;;;;12.52;100.00;97499.16;4923898;28;20227;-62
2022/08/08 02:53:47;;;;;;;3.47;3.20;;;;;;;12.39;100.00;97506.00;4921460;28;22019;-67
2022/08/08 02:56:45;;;;;;;3.50;3.30;;;;;;;12.26;100.00;97496.03;4943585;28;20611;-62
2022/08/08 02:59:55;;;;;;;3.50;3.30;;;;;;;12.32;100.00;97505.09;4962933;28;20219;-64
2022/08/08 03:03:32;;;;;;;3.73;3.47;;;;;;;12.25;100.00;97499.69;4910816;28;20443;-62
2022/08/08 03:06:29;;;;;;;3.50;3.20;;;;;;;12.19;100.00;97515.56;4957594;28;20233;-64
2022/08/08 03:09:37;;;;;;;3.43;3.13;;;;;;;12.18;100.00;97513.91;4940667;28;20214;-66
2022/08/08 03:12:43;;;;;;;3.63;3.33;;;;;;;12.14;100.00;97516.94;4962534;28;20214;-65
2022/08/08 03:16:12;;;;;;;2.70;2.60;;;;;;;11.92;100.00;97512.53;4960727;28;20280;-66
2022/08/08 03:19:21;;;;;;;3.53;3.23;;;;;;;12.04;100.00;97523.53;4845478;29;20216;-66
2022/08/08 03:21:49;;;;;;;3.10;2.80;;;;;;;11.99;100.00;97524.06;4890525;29;20355;-65
2022/08/08 03:24:28;;;;;;;3.77;3.53;;;;;;;11.97;100.00;97518.13;4867888;29;20212;-63
2022/08/08 03:27:05;;;;;;;3.50;3.20;;;;;;;11.96;100.00;97516.47;4869526;29;20240;-66
2022/08/08 03:29:39;;;;;;;6.07;3.80;;;;;;;11.95;100.00;97513.00;4885732;29;20236;-66
2022/08/08 03:35:28;;;;;;;3.37;3.17;;;;;;;11.76;100.00;97519.69;4867092;29;20235;-66
2022/08/08 03:38:01;;;;;;;3.60;3.40;;;;;;;11.72;100.00;97513.91;4888423;29;20220;-64
2022/08/08 03:40:52;;;;;;;3.53;3.30;;;;;;;11.73;100.00;97520.84;4845071;29;20220;-66
2022/08/08 03:43:21;;;;;;;2.83;2.70;;;;;;;11.67;100.00;97524.25;4886470;29;20254;-63
2022/08/08 03:45:50;;;;;;;3.13;3.00;;;;;;;11.56;100.00;97525.53;4892463;29;20698;-64
2022/08/08 03:48:38;;;;;;;3.60;3.37;;;;;;;11.56;100.00;97525.53;4829948;28;20682;-63
2022/08/08 03:51:28;;;;;;;3.60;3.37;;;;;;;11.57;100.00;97521.03;4964014;28;20206;-63
2022/08/08 03:54:17;;;;;;;3.63;3.33;;;;;;;11.62;100.00;97536.44;4963368;28;20236;-65
2022/08/08 03:57:12;;;;;;;3.43;3.23;;;;;;;11.47;100.00;97528.47;4938445;28;20830;-65
2022/08/08 04:00:00;;;;;;;3.37;3.20;;;;;;;11.40;100.00;97537.16;4967746;28;20207;-64
2022/08/08 04:02:42;;;;;;;3.40;3.20;;;;;;;11.47;100.00;97544.38;4929498;28;20688;-62
2022/08/08 04:05:19;;;;;;;3.43;3.17;;;;;;;11.32;100.00;97539.84;4962129;28;20240;-67
2022/08/08 04:07:56;;;;;;;3.07;2.97;;;;;;;11.35;100.00;97544.78;4963248;28;20260;-65
2022/08/08 04:10:25;;;;;;;3.47;3.17;;;;;;;11.38;100.00;97544.47;4943370;28;20236;-67
2022/08/08 04:13:01;;;;;;;3.20;3.10;;;;;;;11.38;100.00;97546.28;4950243;28;20794;-66
2022/08/08 04:15:45;;;;;;;3.57;3.23;;;;;;;11.36;100.00;97551.75;4966072;28;20596;-64
2022/08/08 04:18:36;;;;;;;3.70;3.40;;;;;;;11.24;100.00;97539.94;4946410;28;20576;-64
2022/08/08 04:21:15;;;;;;;3.33;3.13;;;;;;;11.38;100.00;97548.94;4961758;28;20286;-66
2022/08/08 04:23:50;;;;;;;3.40;3.20;;;;;;;11.29;100.00;97562.28;4960732;28;20209;-67
2022/08/08 04:26:39;;;;;;;3.60;3.30;;;;;;;11.35;100.00;97566.00;4924278;28;20628;-64
2022/08/08 04:29:27;;;;;;;3.27;3.13;;;;;;;11.35;100.00;97570.50;4966754;28;20218;-65
2022/08/08 04:32:06;;;;;;;3.20;3.10;;;;;;;11.33;100.00;97573.34;4967011;28;20209;-65
2022/08/08 04:34:35;;;;;;;3.37;3.17;;;;;;;11.44;100.00;97572.09;4920141;28;20230;-64
2022/08/08 04:37:24;;;;;;;3.77;3.20;;;;;;;11.42;100.00;97577.59;4902827;28;20407;-67
2022/08/08 04:40:00;;;;;;;3.20;2.90;;;;;;;11.47;100.00;97578.88;4958704;28;20217;-64
2022/08/08 04:42:35;;;;;;;2.90;2.80;;;;;;;11.57;100.00;97580.28;4945815;28;20651;-66
2022/08/08 04:45:07;;;;;;;3.93;3.43;;;;;;;11.65;100.00;97586.50;4959134;28;20598;-64
2022/08/08 04:47:38;;;;;;;4.67;3.73;;;;;;;11.70;100.00;97592.91;4965180;28;20619;-66
2022/08/08 04:50:14;;;;;;;3.57;3.33;;;;;;;11.76;100.00;97598.50;4914401;28;20622;-65
2022/08/08 04:53:00;;;;;;;3.63;3.33;;;;;;;11.86;100.00;97594.56;4965753;28;20212;-66
2022/08/08 04:55:41;;;;;;;3.27;3.07;;;;;;;11.95;100.00;97597.16;4917662;28;20478;-65
2022/08/08 04:58:22;;;;;;;4.67;3.10;;;;;;;12.03;100.00;97586.47;4962015;28;20210;-65
2022/08/08 05:00:53;;;;;;;3.70;3.50;;;;;;;12.16;100.00;97588.47;4958903;28;20214;-66
2022/08/08 05:03:21;;;;;;;3.23;3.03;;;;;;;12.22;100.00;97590.41;4961569;28;20691;-64
2022/08/08 05:06:10;;;;;;;3.67;3.47;;;;;;;12.36;100.00;97588.75;4940727;28;20829;-65
2022/08/08 05:08:46;;;;;;;3.77;3.47;;;;;;;12.49;100.00;97593.38;4917595;28;20412;-66
2022/08/08 05:11:20;;;;;;;3.70;3.00;;;;;;;12.60;100.00;97597.38;4959423;28;20653;-63
2022/08/08 05:13:53;;;;;;;3.40;3.10;;;;;;;12.72;100.00;97592.41;4964842;28;20844;-66
2022/08/08 05:16:30;;;;;;;3.63;3.37;;;;;;;12.84;100.00;97584.78;4958854;28;20249;-63
2022/08/08 05:19:19;;;;;;;3.67;3.47;;;;;;;12.98;100.00;97594.53;4951546;28;20221;-66
2022/08/08 05:22:08;;;;;;;3.40;3.20;;;;;;;13.13;100.00;97594.47;4946447;28;20373;-64
2022/08/08 05:24:37;;;;;;;2.90;2.80;;;;;;;13.30;100.00;97589.69;4931553;28;20299;-65
2022/08/08 05:27:08;;;;;;;2.93;2.73;;;;;;;13.42;100.00;97592.72;4961313;28;20319;-65
2022/08/08 05:29:36;;;;;;;3.07;2.87;;;;;;;13.43;100.00;97598.84;4961260;28;20617;-63
2022/08/08 05:32:09;;;;;;;3.10;2.80;;;;;;;13.53;100.00;97596.69;4947670;28;20871;-67
2022/08/08 05:34:42;;;;;;;3.07;2.87;;;;;;;13.58;100.00;97604.09;4967663;28;20726;-64
2022/08/08 05:37:12;;;;;;;2.97;2.73;;;;;;;13.81;100.00;97603.84;4945219;28;20252;-66
2022/08/08 05:39:49;;;;;;;3.00;2.80;;;;;;;13.91;100.00;97605.34;4935420;28;20447;-65
2022/08/08 05:42:21;;;;;;;2.73;2.63;;;;;;;13.94;100.00;97596.97;4964264;28;20228;-66
2022/08/08 05:44:53;;;;;;;2.60;2.40;;;;;;;13.98;100.00;97606.22;4939706;28;20330;-66
2022/08/08 05:47:29;;;;;;;3.57;3.30;;;;;;;14.16;100.00;97608.38;4949684;28;20221;-66
2022/08/08 05:50:18;;;;;;;2.90;2.70;;;;;;;14.40;100.00;97604.38;4970272;28;20213;-66
2022/08/08 05:52:48;;;;;;;3.20;2.80;;;;;;;14.53;100.00;97613.44;4929799;28;20206;-62
2022/08/08 05:55:16;;;;;;;3.37;2.70;;;;;;;14.63;100.00;97616.59;4963978;28;20225;-66
2022/08/08 05:57:47;;;;;;;3.17;2.43;;;;;;;14.81;100.00;97613.41;4928252;28;20785;-64
2022/08/08 06:00:34;;;;;;;2.70;2.60;;;;;;;14.96;100.00;97617.75;4961573;28;20288;-65
2022/08/08 06:03:11;;;;;;;2.70;2.50;;;;;;;15.02;100.00;97620.44;4943281;28;20211;-66
2022/08/08 06:05:54;;;;;;;3.10;2.43;;;;;;;15.09;100.00;97617.75;4943549;28;20972;-64
2022/08/08 06:08:27;;;;;;;2.70;2.50;;;;;;;15.29;100.00;97617.00;4949928;28;20694;-65
2022/08/08 06:11:04;;;;;;;5.37;2.30;;;;;;;15.45;100.00;97619.25;4922981;28;20662;-66
2022/08/08 06:13:32;;;;;;;2.40;2.27;;;;;;;15.58;100.00;97614.97;4962007;28;20218;-65
2022/08/08 06:16:14;;;;;;;2.30;2.17;;;;;;;15.80;100.00;97612.88;4957768;28;20230;-67
2022/08/08 06:18:48;;;;;;;2.80;2.60;;;;;;;15.99;100.00;97621.94;4947004;28;20209;-64
2022/08/08 06:21:18;;;;;;;2.90;2.37;;;;;;;16.12;100.00;97621.09;4964078;28;20217;-67
2022/08/08 06:24:01;;;;;;;2.43;2.33;;;;;;;16.27;100.00;97617.34;4932058;28;20686;-65
2022/08/08 06:26:47;;;;;;;2.20;2.10;;;;;;;16.33;100.00;97617.34;4916532;28;20237;-65
2022/08/08 06:29:26;;;;;;;2.30;2.20;;;;;;;16.45;100.00;97624.69;4964031;28;20209;-65
2022/08/08 06:32:16;;;;;;;3.13;1.80;;;;;;;16.59;100.00;97634.31;4962613;28;20206;-67
2022/08/08 06:34:48;;;;;;;2.10;1.97;;;;;;;16.73;100.00;97635.09;4946153;28;20308;-65
2022/08/08 06:37:38;;;;;;;2.03;1.93;;;;;;;16.81;100.00;97628.69;4948841;28;20302;-63
2022/08/08 06:40:13;;;;;;;1.90;1.80;;;;;;;17.10;100.00;97631.03;4946527;28;20217;-65
2022/08/08 06:42:55;;;;;;;2.10;2.00;;;;;;;17.26;100.00;97627.00;4917091;28;20213;-64
2022/08/08 06:45:25;;;;;;;4.80;4.03;;;;;;;17.32;100.00;97634.16;4961980;28;20278;-66
2022/08/08 06:47:53;;;;;;;2.37;2.27;;;;;;;17.55;100.00;97635.47;4944085;28;20293;-66
2022/08/08 06:50:31;;;;;;;2.30;2.20;;;;;;;17.66;100.00;97648.16;4961194;28;20329;-66
2022/08/08 06:53:08;;;;;;;1.77;1.67;;;;;;;17.74;95.85;97645.19;4948330;28;21026;-65
2022/08/08 06:55:48;;;;;;;2.30;2.10;;;;;;;17.96;94.36;97650.16;4946159;28;20607;-64
2022/08/08 06:58:30;;;;;;;4.33;1.77;;;;;;;17.94;87.35;97647.69;4917990;28;20232;-67
2022/08/08 07:01:02;;;;;;;2.17;1.97;;;;;;;18.18;88.29;97647.94;4912599;28;20636;-62
2022/08/08 07:03:53;;;;;;;1.57;1.57;;;;;;;18.39;84.02;97647.72;4958240;28;20800;-65
2022/08/08 07:06:47;;;;;;;2.20;2.00;;;;;;;18.48;83.41;97644.53;4951339;28;20228;-66
2022/08/08 07:09:19;;;;;;;1.70;1.60;;;;;;;18.51;78.69;97645.91;4946504;28;20613;-66
2022/08/08 07:11:50;;;;;;;2.10;1.90;;;;;;;18.69;80.55;97661.19;4950306;28;20500;-65
2022/08/08 07:14:25;;;;;;;1.57;1.47;;;;;;;18.79;76.12;97658.81;4965307;28;20202;-64
2022/08/08 07:17:02;;;;;;;1.50;1.50;;;;;;;18.88;82.14;97651.25;4915354;28;20783;-65
2022/08/08 07:19:43;;;;;;;2.43;2.23;;;;;;;18.92;78.91;97654.31;4967490;28;20217;-65
2022/08/08 07:22:18;;;;;;;1.87;1.87;;;;;;;18.88;77.42;97650.44;4951088;28;20205;-65
2022/08/08 07:24:52;;;;;;;3.00;1.97;;;;;;;18.94;80.97;97650.38;4963470;28;20304;-65
2022/08/08 07:27:24;;;;;;;1.80;1.70;;;;;;;19.00;75.22;97651.34;4948085;28;20802;-65
2022/08/08 07:30:13;;;;;;;2.03;1.80;;;;;;;19.03;73.03;97653.56;4923836;28;20270;-62
2022/08/08 07:32:53;;;;;;;1.80;1.70;;;;;;;19.08;76.18;97660.97;4965726;28;20317;-65
2022/08/08 07:35:27;;;;;;;1.93;1.83;;;;;;;19.31;74.15;97659.38;4966986;28;21063;-63
2022/08/08 07:38:00;;;;;;;1.87;1.77;;;;;;;19.44;73.79;97661.06;4954869;28;20304;-64
2022/08/08 07:40:39;;;;;;;2.67;2.50;;;;;;;19.38;70.27;97660.13;4968004;28;20206;-66
2022/08/08 07:43:12;;;;;;;2.10;1.87;;;;;;;19.51;71.32;97656.44;4955550;28;20683;-63
2022/08/08 07:45:43;;;;;;;2.37;1.80;;;;;;;19.43;67.75;97662.94;4923978;28;20256;-64
2022/08/08 07:48:32;;;;;;;2.17;2.03;;;;;;;19.67;68.15;97661.13;4963254;28;20713;-65
2022/08/08 07:51:03;;;;;;;2.07;1.97;;;;;;;19.67;69.73;97655.75;4968277;28;20285;-63
2022/08/08 07:53:40;;;;;;;1.70;1.67;;;;;;;19.88;67.98;97672.38;4958787;28;20228;-63
2022/08/08 07:56:32;;;;;;;1.90;1.80;;;;;;;19.77;65.57;97665.94;4966005;28;20385;-65
2022/08/08 07:59:07;;;;;;;2.07;1.93;;;;;;;19.95;67.44;97672.28;4950244;28;20205;-63
2022/08/08 08:01:39;;;;;;;1.80;1.70;;;;;;;20.14;64.51;97675.69;4940564;28;20214;-63
2022/08/08 08:04:33;;;;;;;2.07;1.97;;;;;;;20.24;67.75;97667.03;4962480;28;20913;-65
2022/08/08 08:07:09;;;;;;;1.63;1.53;;;;;;;20.46;63.93;97663.75;4968282;28;20277;-63
2022/08/08 08:09:41;;;;;;;1.80;1.50;;;;;;;20.56;63.00;97668.53;4958712;28;20340;-66
2022/08/08 08:12:12;;;;;;;2.07;1.80;;;;;;;20.82;60.33;97667.19;4969446;28;20248;-63
2022/08/08 08:15:04;;;;;;;2.20;1.90;;;;;;;21.08;58.72;97662.31;4951248;28;20220;-63
2022/08/08 08:17:33;;;;;;;1.90;1.80;;;;;;;21.29;58.13;97668.91;4921428;28;20580;-66
2022/08/08 08:20:17;;;;;;;3.57;2.30;;;;;;;21.20;55.52;97673.06;4958205;28;20573;-66
2022/08/08 08:22:48;;;;;;;2.30;2.20;;;;;;;21.30;57.57;97667.03;4965332;28;20289;-66
2022/08/08 08:25:18;;;;;;;2.43;1.80;;;;;;;21.37;55.57;97668.50;4949397;28;20242;-66
2022/08/08 08:28:07;;;;;;;2.20;2.10;;;;;;;21.40;55.86;97659.97;4960362;28;20210;-64
2022/08/08 08:30:38;;;;;;;2.83;1.77;;;;;;;21.45;59.31;97661.09;4948656;28;21073;-66
2022/08/08 08:33:07;;;;;;;4.13;1.83;;;;;;;21.50;55.55;97662.00;4918966;28;20222;-64
2022/08/08 08:35:42;;;;;;;1.77;1.67;;;;;;;21.57;55.53;97658.31;4950307;28;20233;-63
2022/08/08 08:38:31;;;;;;;2.07;1.90;;;;;;;21.63;56.20;97660.88;4952835;28;20228;-63
2022/08/08 08:41:02;;;;;;;2.57;1.87;;;;;;;21.66;53.96;97665.81;4914508;28;20419;-66
2022/08/08 08:43:46;;;;;;;2.23;1.97;;;;;;;21.53;55.39;97658.00;4962268;28;20217;-63
2022/08/08 08:46:17;;;;;;;2.80;1.80;;;;;;;21.67;56.06;97662.03;4942507;28;20647;-66
2022/08/08 08:48:58;;;;;;;1.80;1.60;;;;;;;21.72;55.59;97669.41;4914208;28;20426;-65
2022/08/08 08:51:31;;;;;;;1.90;1.80;;;;;;;21.77;53.62;97672.19;4960756;28;20475;-65
2022/08/08 08:54:04;;;;;;;2.23;1.80;;;;;;;21.87;53.46;97659.91;4970207;28;20209;-66
2022/08/08 08:56:39;;;;;;;1.50;1.50;;;;;;;21.92;55.69;97660.84;4944879;28;20353;-63
2022/08/08 08:59:14;;;;;;;1.70;1.60;;;;;;;22.01;53.83;97657.72;4964973;28;20222;-65
2022/08/08 09:01:51;;;;;;;2.00;1.90;;;;;;;22.17;56.01;97651.50;4949168;28;20295;-62
2022/08/08 09:04:26;;;;;;;2.13;2.03;;;;;;;22.15;51.14;97661.69;4919797;28;20218;-61
2022/08/08 09:07:08;;;;;;;1.97;1.77;;;;;;;22.00;51.81;97658.78;4913831;28;20225;-62
2022/08/08 09:09:41;;;;;;;2.63;1.63;;;;;;;22.16;50.17;97654.44;4950079;28;20581;-64
2022/08/08 09:12:19;;;;;;;2.17;1.97;;;;;;;22.48;51.84;97649.22;4964795;28;20504;-63
2022/08/08 09:14:49;;;;;;;2.13;1.80;;;;;;;22.47;49.55;97654.88;4928633;28;20225;-62
2022/08/08 09:17:19;;;;;;;2.17;2.03;;;;;;;22.32;50.23;97652.75;4963351;28;20451;-65
2022/08/08 09:20:09;;;;;;;1.93;1.83;;;;;;;22.36;50.33;97653.91;4941495;28;20213;-65
2022/08/08 09:22:58;;;;;;;2.67;2.47;;;;;;;22.64;47.36;97649.44;4915387;28;20619;-63
2022/08/08 09:25:27;;;;;;;2.13;2.03;;;;;;;22.79;46.98;97652.31;4961750;28;20326;-65
2022/08/08 09:28:18;;;;;;;1.63;1.63;;;;;;;22.76;45.44;97655.50;4958064;28;20372;-64
2022/08/08 09:31:07;;;;;;;1.83;1.73;;;;;;;22.98;44.98;97655.50;4943804;28;20238;-62
2022/08/08 09:33:42;;;;;;;1.93;1.77;;;;;;;22.77;44.54;97653.66;4966451;28;20264;-65
2022/08/08 09:36:33;;;;;;;1.50;1.50;;;;;;;22.81;44.38;97655.56;4944504;28;20265;-63
2022/08/08 09:39:05;;;;;;;2.00;1.90;;;;;;;22.96;46.51;97648.72;4915557;28;20209;-64
2022/08/08 09:41:52;;;;;;;2.60;2.10;;;;;;;22.78;44.76;97650.69;4966808;28;20684;-66
2022/08/08 09:44:57;;;;;;;3.83;1.50;;;;;;;22.74;43.39;97651.44;4948390;28;20210;-62
2022/08/08 09:47:35;;;;;;;1.80;1.60;;;;;;;23.04;43.80;97650.16;4966910;28;20342;-65
2022/08/08 09:50:25;;;;;;;1.40;1.40;;;;;;;23.16;42.51;97650.84;4942330;28;21068;-65
2022/08/08 09:52:55;;;;;;;2.70;2.03;;;;;;;23.29;42.64;97640.72;4936516;28;20435;-63
2022/08/08 09:55:37;;;;;;;1.47;1.47;;;;;;;23.56;43.96;97646.91;4965507;28;20681;-65
2022/08/08 09:58:26;;;;;;;1.73;1.63;;;;;;;23.79;43.24;97638.72;4966328;28;20629;-65
2022/08/08 10:01:10;;;;;;;2.23;2.13;;;;;;;23.69;43.02;97637.56;4943187;28;20699;-65
2022/08/08 10:03:59;;;;;;;1.87;1.80;;;;;;;24.01;42.59;97630.50;4963740;28;20205;-63
2022/08/08 10:06:32;;;;;;;2.20;1.97;;;;;;;24.06;41.59;97627.03;4943993;28;20604;-66
2022/08/08 10:09:05;;;;;;;1.80;1.70;;;;;;;24.12;42.20;97624.06;4908569;28;21412;-62
2022/08/08 10:11:37;;;;;;;1.90;1.80;;;;;;;24.47;40.40;97615.59;4963889;28;20304;-66
2022/08/08 10:14:32;;;;;;;2.53;1.70;;;;;;;24.30;39.93;97621.19;4965155;28;20846;-67
2022/08/08 10:17:08;;;;;;;1.70;1.60;;;;;;;24.32;40.34;97628.00;4940298;28;20559;-65
2022/08/08 10:20:02;;;;;;;1.97;1.23;;;;;;;24.51;39.74;97622.09;4951513;28;20205;-63
2022/08/08 10:22:31;;;;;;;1.97;1.60;;;;;;;24.46;39.30;97614.78;4962776;28;20590;-67
2022/08/08 10:25:05;;;;;;;1.77;1.67;;;;;;;24.35;40.20;97630.16;4907649;28;20225;-63
2022/08/08 10:27:43;;;;;;;1.70;1.60;;;;;;;24.22;38.89;97622.50;4961575;28;20595;-66
2022/08/08 10:30:16;;;;;;;1.97;1.87;;;;;;;24.18;40.47;97608.69;4963804;28;20580;-65
2022/08/08 10:33:08;;;;;;;1.40;1.40;;;;;;;24.38;40.36;97615.28;4943717;28;20205;-65
2022/08/08 10:35:39;;;;;;;1.67;1.57;;;;;;;24.28;38.76;97607.94;4966204;28;20505;-64
2022/08/08 10:38:30;;;;;;;1.50;1.50;;;;;;;24.16;40.23;97610.84;4959143;28;20438;-64
2022/08/08 10:41:03;;;;;;;1.13;1.13;;;;;;;24.20;37.18;97609.25;4912692;28;20229;-63
2022/08/08 10:43:38;;;;;;;1.43;1.43;;;;;;;24.21;38.99;97607.34;4963728;28;20641;-64
2022/08/08 10:46:24;;;;;;;1.90;1.80;;;;;;;24.50;38.13;97606.94;4957098;28;20906;-63
2022/08/08 10:48:59;;;;;;;2.90;2.70;;;;;;;24.60;37.80;97603.47;4946886;28;20272;-63
2022/08/08 10:51:28;;;;;;;2.90;1.67;;;;;;;24.65;37.30;97609.72;4945785;28;20209;-63
2022/08/08 10:54:07;;;;;;;1.13;1.13;;;;;;;24.67;36.82;97591.31;4961496;28;20607;-63
2022/08/08 10:56:37;;;;;;;1.30;1.20;;;;;;;24.50;35.05;97594.22;4919494;28;20742;-62
2022/08/08 10:59:10;;;;;;;1.63;1.53;;;;;;;24.63;37.29;97600.22;4959039;28;20238;-64
2022/08/08 11:01:47;;;;;;;1.70;1.60;;;;;;;24.27;36.99;97593.56;4968047;28;20225;-65
2022/08/08 11:04:23;;;;;;;1.60;1.50;;;;;;;24.35;38.20;97592.25;4944015;28;20558;-66
2022/08/08 11:07:05;;;;;;;2.30;1.60;;;;;;;24.41;37.10;97587.66;4939087;28;20448;-65
2022/08/08 11:09:35;;;;;;;1.53;1.43;;;;;;;24.31;36.99;97591.16;4964621;28;20202;-66
2022/08/08 11:12:09;;;;;;;1.33;1.23;;;;;;;24.35;36.50;97594.97;4910605;28;20446;-66
2022/08/08 11:14:51;;;;;;;2.47;1.30;;;;;;;24.25;36.08;97595.72;4904991;28;20585;-64
2022/08/08 11:17:22;;;;;;;2.80;1.23;;;;;;;24.47;36.31;97592.03;4963252;28;20213;-63
2022/08/08 11:20:16;;;;;;;2.43;1.60;;;;;;;24.72;35.48;97590.50;4958840;28;20206;-63
2022/08/08 11:22:51;;;;;;;1.23;1.23;;;;;;;24.68;34.63;97582.09;4962218;28;20209;-65
2022/08/08 11:25:23;;;;;;;1.57;1.30;;;;;;;24.81;35.20;97580.81;4962675;28;20232;-62
2022/08/08 11:28:13;;;;;;;1.43;1.43;;;;;;;24.88;36.45;97588.66;4944674;28;20217;-62
2022/08/08 11:30:43;;;;;;;1.47;1.37;;;;;;;24.97;35.51;97588.97;4909576;28;20592;-65
2022/08/08 11:33:21;;;;;;;2.13;1.60;;;;;;;25.02;35.82;97588.97;4938752;28;20214;-63
2022/08/08 11:36:13;;;;;;;1.63;1.53;;;;;;;25.23;36.63;97578.97;4968161;28;20237;-63
2022/08/08 11:38:41;;;;;;;2.40;1.57;;;;;;;25.35;37.32;97583.31;4958643;28;20225;-64
2022/08/08 11:41:22;;;;;;;1.43;1.33;;;;;;;25.37;37.81;97587.38;4957382;28;20210;-64
2022/08/08 11:43:51;;;;;;;2.97;1.50;;;;;;;25.63;37.40;97594.72;4968667;28;20209;-65
2022/08/08 11:46:23;;;;;;;1.40;1.40;;;;;;;25.58;36.25;97577.38;4918746;28;20436;-60
2022/08/08 11:48:52;;;;;;;2.00;1.80;;;;;;;25.49;36.75;97584.44;4940585;28;20588;-64
2022/08/08 11:51:24;;;;;;;1.43;1.43;;;;;;;25.57;36.17;97580.34;4962956;28;20309;-62
2022/08/08 11:54:08;;;;;;;1.70;1.57;;;;;;;25.01;36.64;97584.63;4962205;28;20673;-62
2022/08/08 11:56:56;;;;;;;3.27;2.70;;;;;;;24.83;37.25;97584.06;4965919;28;20256;-64
2022/08/08 11:59:33;;;;;;;1.53;1.43;;;;;;;25.31;37.40;97584.94;4959846;28;20929;-63
2022/08/08 12:02:23;;;;;;;2.37;2.00;;;;;;;25.28;36.54;97573.53;4892283;28;20210;-61
2022/08/08 12:05:08;;;;;;;1.37;1.27;;;;;;;25.83;37.26;97569.47;4963647;28;20586;-61
2022/08/08 12:07:46;;;;;;;1.97;1.53;;;;;;;26.17;35.66;97571.59;4961342;28;20714;-61
2022/08/08 12:10:19;;;;;;;2.07;1.87;;;;;;;26.09;35.15;97574.84;4963327;28;20224;-64
2022/08/08 12:12:49;;;;;;;1.83;1.30;;;;;;;26.13;36.06;97568.56;4971510;28;20216;-63
2022/08/08 12:15:29;;;;;;;1.40;1.40;;;;;;;26.19;35.16;97566.69;4965403;28;20234;-61
2022/08/08 12:18:14;;;;;;;1.60;1.50;;;;;;;26.30;35.01;97560.13;4911886;28;20381;-62
2022/08/08 12:20:49;;;;;;;4.90;4.60;;;;;;;26.40;36.56;97559.28;4966971;28;20219;-64
2022/08/08 12:23:33;;;;;;;1.77;1.73;;;;;;;26.33;34.80;97556.06;4963600;28;20301;-62
2022/08/08 12:26:22;;;;;;;1.60;1.60;;;;;;;26.34;34.00;97560.41;4960593;28;20588;-64
2022/08/08 12:29:18;;;;;;;1.80;1.63;;;;;;;26.11;34.80;97562.63;4967529;28;20229;-64
2022/08/08 12:31:49;;;;;;;1.60;1.53;;;;;;;25.98;35.81;97566.75;4967976;28;20297;-63
2022/08/08 12:34:36;;;;;;;1.77;1.50;;;;;;;26.06;35.08;97564.53;4911115;28;20221;-62
2022/08/08 12:37:06;;;;;;;1.83;1.73;;;;;;;26.00;34.41;97575.44;4965133;28;20649;-62
2022/08/08 12:39:37;;;;;;;1.40;1.40;;;;;;;26.33;35.16;97557.94;4960267;28;20425;-64
2022/08/08 12:42:25;;;;;;;2.27;2.00;;;;;;;27.10;33.30;97559.47;4959821;28;20339;-64
2022/08/08 12:45:05;;;;;;;1.37;1.37;;;;;;;28.96;29.96;97554.00;4965505;28;20221;-64
2022/08/08 12:47:59;;;;;;;1.17;1.17;;;;;;;33.99;25.73;97546.03;4964450;28;20200;-63
2022/08/08 12:50:49;;;;;;;1.27;1.23;;;;;;;37.90;21.86;97546.31;4922900;28;20490;-65